sensor_id;sensor_type;location;lat;lon;timestamp;temperature;humidity
13462;DHT22;6803;45.264;5.468;2023-09-12T00:01:49;20.40;99.90
13462;DHT22;6803;45.264;5.468;2023-09-12T00:04:20;20.30;99.90
13462;DHT22;6803;45.264;5.468;2023-09-12T00:06:51;20.30;99.90
13462;DHT22;6803;45.264;5.468;2023-09-12T00:09:21;20.30;99.90
13462;DHT22;6803;45.264;5.468;2023-09-12T00:11:52;20.00;99.90
13462;DHT22;6803;45.264;5.468;2023-09-12T00:17:04;19.80;99.90
13462;DHT22;6803;45.264;5.468;2023-09-12T00:22:16;19.80;99.90
13462;DHT22;6803;45.264;5.468;2023-09-12T00:24:46;19.80;99.90
13462;DHT22;6803;45.264;5.468;2023-09-12T00:27:17;19.90;99.90
13462;DHT22;6803;45.264;5.468;2023-09-12T00:29:47;19.70;99.90
13462;DHT22;6803;45.264;5.468;2023-09-12T00:32:18;19.90;99.90
13462;DHT22;6803;45.264;5.468;2023-09-12T00:34:48;19.90;99.90
13462;DHT22;6803;45.264;5.468;2023-09-12T00:37:19;20.00;99.90
13462;DHT22;6803;45.264;5.468;2023-09-12T00:39:50;19.70;99.90
13462;DHT22;6803;45.264;5.468;2023-09-12T00:42:21;19.40;99.90
13462;DHT22;6803;45.264;5.468;2023-09-12T00:44:51;19.30;99.90
13462;DHT22;6803;45.264;5.468;2023-09-12T00:47:23;19.20;99.90
13462;DHT22;6803;45.264;5.468;2023-09-12T00:49:55;19.10;99.90
13462;DHT22;6803;45.264;5.468;2023-09-12T00:52:27;19.10;99.90
13462;DHT22;6803;45.264;5.468;2023-09-12T00:54:58;19.20;99.90
13462;DHT22;6803;45.264;5.468;2023-09-12T00:57:29;19.30;99.90
13462;DHT22;6803;45.264;5.468;2023-09-12T01:00:03;19.30;99.90
13462;DHT22;6803;45.264;5.468;2023-09-12T01:02:37;19.30;99.90
13462;DHT22;6803;45.264;5.468;2023-09-12T01:05:10;19.30;99.90
13462;DHT22;6803;45.264;5.468;2023-09-12T01:07:43;19.30;99.90
13462;DHT22;6803;45.264;5.468;2023-09-12T01:10:14;19.20;99.90
13462;DHT22;6803;45.264;5.468;2023-09-12T01:12:45;19.00;99.90
13462;DHT22;6803;45.264;5.468;2023-09-12T01:15:16;18.80;99.90
13462;DHT22;6803;45.264;5.468;2023-09-12T01:17:48;18.60;99.90
13462;DHT22;6803;45.264;5.468;2023-09-12T01:20:22;18.60;99.90
13462;DHT22;6803;45.264;5.468;2023-09-12T01:23:08;18.70;99.90
13462;DHT22;6803;45.264;5.468;2023-09-12T01:26:04;18.90;99.90
13462;DHT22;6803;45.264;5.468;2023-09-12T01:28:35;18.50;99.90
13462;DHT22;6803;45.264;5.468;2023-09-12T01:31:08;18.10;99.90
13462;DHT22;6803;45.264;5.468;2023-09-12T01:33:40;18.00;99.90
13462;DHT22;6803;45.264;5.468;2023-09-12T01:36:11;17.80;99.90
13462;DHT22;6803;45.264;5.468;2023-09-12T01:38:42;17.80;99.90
13462;DHT22;6803;45.264;5.468;2023-09-12T01:41:15;17.90;99.90
13462;DHT22;6803;45.264;5.468;2023-09-12T01:43:46;18.00;99.90
13462;DHT22;6803;45.264;5.468;2023-09-12T01:46:19;18.10;99.90
13462;DHT22;6803;45.264;5.468;2023-09-12T01:48:52;18.20;99.90
13462;DHT22;6803;45.264;5.468;2023-09-12T01:51:25;18.40;99.90
13462;DHT22;6803;45.264;5.468;2023-09-12T01:53:57;18.50;99.90
13462;DHT22;6803;45.264;5.468;2023-09-12T01:56:28;18.40;99.90
13462;DHT22;6803;45.264;5.468;2023-09-12T01:59:01;18.40;99.90
13462;DHT22;6803;45.264;5.468;2023-09-12T02:01:32;18.30;99.90
13462;DHT22;6803;45.264;5.468;2023-09-12T02:04:03;17.90;99.90
13462;DHT22;6803;45.264;5.468;2023-09-12T02:06:35;17.60;99.90
13462;DHT22;6803;45.264;5.468;2023-09-12T02:09:06;17.50;99.90
13462;DHT22;6803;45.264;5.468;2023-09-12T02:11:37;17.40;99.90
13462;DHT22;6803;45.264;5.468;2023-09-12T02:14:08;17.30;99.90
13462;DHT22;6803;45.264;5.468;2023-09-12T02:16:40;17.40;99.90
13462;DHT22;6803;45.264;5.468;2023-09-12T02:19:12;17.60;99.90
13462;DHT22;6803;45.264;5.468;2023-09-12T02:24:22;17.80;99.90
13462;DHT22;6803;45.264;5.468;2023-09-12T02:26:52;17.90;99.90
13462;DHT22;6803;45.264;5.468;2023-09-12T02:29:23;17.90;99.90
13462;DHT22;6803;45.264;5.468;2023-09-12T02:31:53;18.00;99.90
13462;DHT22;6803;45.264;5.468;2023-09-12T02:34:26;18.00;99.90
13462;DHT22;6803;45.264;5.468;2023-09-12T02:36:57;18.10;99.90
13462;DHT22;6803;45.264;5.468;2023-09-12T02:39:28;18.20;99.90
13462;DHT22;6803;45.264;5.468;2023-09-12T02:41:59;18.20;99.90
13462;DHT22;6803;45.264;5.468;2023-09-12T02:44:30;18.30;99.90
13462;DHT22;6803;45.264;5.468;2023-09-12T02:47:01;18.40;99.90
13462;DHT22;6803;45.264;5.468;2023-09-12T02:49:33;18.50;99.90
13462;DHT22;6803;45.264;5.468;2023-09-12T02:52:05;18.50;99.90
13462;DHT22;6803;45.264;5.468;2023-09-12T02:54:35;18.50;99.90
13462;DHT22;6803;45.264;5.468;2023-09-12T02:59:47;18.60;99.90
13462;DHT22;6803;45.264;5.468;2023-09-12T03:04:58;18.40;99.90
13462;DHT22;6803;45.264;5.468;2023-09-12T03:07:31;18.20;99.90
13462;DHT22;6803;45.264;5.468;2023-09-12T03:10:02;18.20;99.90
13462;DHT22;6803;45.264;5.468;2023-09-12T03:12:33;18.30;99.90
13462;DHT22;6803;45.264;5.468;2023-09-12T03:15:07;18.30;99.90
13462;DHT22;6803;45.264;5.468;2023-09-12T03:17:39;18.20;99.90
13462;DHT22;6803;45.264;5.468;2023-09-12T03:20:11;18.10;99.90
13462;DHT22;6803;45.264;5.468;2023-09-12T03:22:42;18.10;99.90
13462;DHT22;6803;45.264;5.468;2023-09-12T03:25:14;18.10;99.90
13462;DHT22;6803;45.264;5.468;2023-09-12T03:27:45;18.10;99.90
13462;DHT22;6803;45.264;5.468;2023-09-12T03:30:15;18.10;99.90
13462;DHT22;6803;45.264;5.468;2023-09-12T03:32:46;17.90;99.90
13462;DHT22;6803;45.264;5.468;2023-09-12T03:35:17;17.70;99.90
13462;DHT22;6803;45.264;5.468;2023-09-12T03:37:48;17.80;99.90
13462;DHT22;6803;45.264;5.468;2023-09-12T03:40:18;17.90;99.90
13462;DHT22;6803;45.264;5.468;2023-09-12T03:42:49;17.90;99.90
13462;DHT22;6803;45.264;5.468;2023-09-12T03:45:20;17.90;99.90
13462;DHT22;6803;45.264;5.468;2023-09-12T03:47:51;17.70;99.90
13462;DHT22;6803;45.264;5.468;2023-09-12T03:50:22;17.70;99.90
13462;DHT22;6803;45.264;5.468;2023-09-12T03:52:53;17.70;99.90
13462;DHT22;6803;45.264;5.468;2023-09-12T03:55:23;17.90;99.90
13462;DHT22;6803;45.264;5.468;2023-09-12T03:57:54;18.20;99.90
13462;DHT22;6803;45.264;5.468;2023-09-12T04:00:24;18.40;99.90
13462;DHT22;6803;45.264;5.468;2023-09-12T04:02:54;18.40;99.90
13462;DHT22;6803;45.264;5.468;2023-09-12T04:05:26;18.40;99.90
13462;DHT22;6803;45.264;5.468;2023-09-12T04:07:57;18.40;99.90
13462;DHT22;6803;45.264;5.468;2023-09-12T04:10:28;18.50;99.90
13462;DHT22;6803;45.264;5.468;2023-09-12T04:12:58;18.50;99.90
13462;DHT22;6803;45.264;5.468;2023-09-12T04:15:29;18.50;99.90
13462;DHT22;6803;45.264;5.468;2023-09-12T04:18:01;18.50;99.90
13462;DHT22;6803;45.264;5.468;2023-09-12T04:20:31;18.50;99.90
13462;DHT22;6803;45.264;5.468;2023-09-12T04:25:45;18.40;99.90
13462;DHT22;6803;45.264;5.468;2023-09-12T04:28:16;18.40;99.90
13462;DHT22;6803;45.264;5.468;2023-09-12T04:30:46;18.40;99.90
13462;DHT22;6803;45.264;5.468;2023-09-12T04:33:18;18.40;99.90
13462;DHT22;6803;45.264;5.468;2023-09-12T04:35:48;18.40;99.90
13462;DHT22;6803;45.264;5.468;2023-09-12T04:38:19;18.40;99.90
13462;DHT22;6803;45.264;5.468;2023-09-12T04:40:55;18.30;99.90
13462;DHT22;6803;45.264;5.468;2023-09-12T04:43:26;18.10;99.90
13462;DHT22;6803;45.264;5.468;2023-09-12T04:45:58;17.80;99.90
13462;DHT22;6803;45.264;5.468;2023-09-12T04:48:29;17.80;99.90
13462;DHT22;6803;45.264;5.468;2023-09-12T04:50:59;17.90;99.90
13462;DHT22;6803;45.264;5.468;2023-09-12T04:56:11;18.20;99.90
13462;DHT22;6803;45.264;5.468;2023-09-12T04:58:42;18.10;99.90
13462;DHT22;6803;45.264;5.468;2023-09-12T05:01:13;17.90;99.90
13462;DHT22;6803;45.264;5.468;2023-09-12T05:03:45;17.80;99.90
13462;DHT22;6803;45.264;5.468;2023-09-12T05:06:16;17.70;99.90
13462;DHT22;6803;45.264;5.468;2023-09-12T05:08:47;17.80;99.90
13462;DHT22;6803;45.264;5.468;2023-09-12T05:11:19;17.80;99.90
13462;DHT22;6803;45.264;5.468;2023-09-12T05:13:50;17.70;99.90
13462;DHT22;6803;45.264;5.468;2023-09-12T05:16:22;17.60;99.90
13462;DHT22;6803;45.264;5.468;2023-09-12T05:18:53;17.50;99.90
13462;DHT22;6803;45.264;5.468;2023-09-12T05:21:24;17.40;99.90
13462;DHT22;6803;45.264;5.468;2023-09-12T05:23:56;17.50;99.90
13462;DHT22;6803;45.264;5.468;2023-09-12T05:26:27;17.50;99.90
13462;DHT22;6803;45.264;5.468;2023-09-12T05:28:58;17.50;99.90
13462;DHT22;6803;45.264;5.468;2023-09-12T05:31:29;17.60;99.90
13462;DHT22;6803;45.264;5.468;2023-09-12T05:34:01;17.70;99.90
13462;DHT22;6803;45.264;5.468;2023-09-12T05:36:32;17.70;99.90
13462;DHT22;6803;45.264;5.468;2023-09-12T05:39:03;17.60;99.90
13462;DHT22;6803;45.264;5.468;2023-09-12T05:41:35;17.70;99.90
13462;DHT22;6803;45.264;5.468;2023-09-12T05:44:06;17.70;99.90
13462;DHT22;6803;45.264;5.468;2023-09-12T05:46:36;17.60;99.90
13462;DHT22;6803;45.264;5.468;2023-09-12T05:49:07;17.60;99.90
13462;DHT22;6803;45.264;5.468;2023-09-12T05:51:37;17.60;99.90
13462;DHT22;6803;45.264;5.468;2023-09-12T05:54:09;17.60;99.90
13462;DHT22;6803;45.264;5.468;2023-09-12T05:56:40;17.60;99.90
13462;DHT22;6803;45.264;5.468;2023-09-12T05:59:11;17.60;99.90
13462;DHT22;6803;45.264;5.468;2023-09-12T06:01:42;17.80;99.90
13462;DHT22;6803;45.264;5.468;2023-09-12T06:04:13;17.90;99.90
13462;DHT22;6803;45.264;5.468;2023-09-12T06:06:45;18.10;99.90
13462;DHT22;6803;45.264;5.468;2023-09-12T06:09:16;18.30;99.90
13462;DHT22;6803;45.264;5.468;2023-09-12T06:11:47;18.50;99.90
13462;DHT22;6803;45.264;5.468;2023-09-12T06:14:17;18.60;99.90
13462;DHT22;6803;45.264;5.468;2023-09-12T06:16:49;18.80;99.90
13462;DHT22;6803;45.264;5.468;2023-09-12T06:19:20;19.00;99.90
13462;DHT22;6803;45.264;5.468;2023-09-12T06:21:51;19.20;99.90
13462;DHT22;6803;45.264;5.468;2023-09-12T06:27:04;19.40;99.90
13462;DHT22;6803;45.264;5.468;2023-09-12T06:29:34;19.40;99.90
13462;DHT22;6803;45.264;5.468;2023-09-12T06:32:06;19.50;99.90
13462;DHT22;6803;45.264;5.468;2023-09-12T06:34:36;19.60;99.90
13462;DHT22;6803;45.264;5.468;2023-09-12T06:39:49;19.70;99.90
13462;DHT22;6803;45.264;5.468;2023-09-12T06:45:02;20.00;99.90
13462;DHT22;6803;45.264;5.468;2023-09-12T06:50:13;20.00;99.90
13462;DHT22;6803;45.264;5.468;2023-09-12T06:52:44;20.10;99.90
13462;DHT22;6803;45.264;5.468;2023-09-12T06:55:16;20.30;99.90
13462;DHT22;6803;45.264;5.468;2023-09-12T07:00:29;20.60;99.90
13462;DHT22;6803;45.264;5.468;2023-09-12T07:03:01;20.70;99.90
13462;DHT22;6803;45.264;5.468;2023-09-12T07:05:34;20.80;99.90
13462;DHT22;6803;45.264;5.468;2023-09-12T07:08:05;20.80;99.90
13462;DHT22;6803;45.264;5.468;2023-09-12T07:10:36;20.80;99.90
13462;DHT22;6803;45.264;5.468;2023-09-12T07:15:49;21.00;99.90
13462;DHT22;6803;45.264;5.468;2023-09-12T07:18:20;21.20;99.90
13462;DHT22;6803;45.264;5.468;2023-09-12T07:20:59;21.40;99.90
13462;DHT22;6803;45.264;5.468;2023-09-12T07:23:30;21.40;99.90
13462;DHT22;6803;45.264;5.468;2023-09-12T07:26:01;21.50;99.90
13462;DHT22;6803;45.264;5.468;2023-09-12T07:28:32;21.60;99.90
13462;DHT22;6803;45.264;5.468;2023-09-12T07:31:03;21.90;99.90
13462;DHT22;6803;45.264;5.468;2023-09-12T07:33:34;22.10;99.90
13462;DHT22;6803;45.264;5.468;2023-09-12T07:36:05;22.50;99.90
13462;DHT22;6803;45.264;5.468;2023-09-12T07:38:36;22.70;99.90
13462;DHT22;6803;45.264;5.468;2023-09-12T07:41:07;23.00;99.90
13462;DHT22;6803;45.264;5.468;2023-09-12T07:43:38;23.00;99.90
13462;DHT22;6803;45.264;5.468;2023-09-12T07:46:10;23.00;99.90
13462;DHT22;6803;45.264;5.468;2023-09-12T07:48:41;22.90;99.90
13462;DHT22;6803;45.264;5.468;2023-09-12T07:51:16;22.90;99.90
13462;DHT22;6803;45.264;5.468;2023-09-12T07:53:47;23.00;99.90
13462;DHT22;6803;45.264;5.468;2023-09-12T07:56:18;23.10;99.90
13462;DHT22;6803;45.264;5.468;2023-09-12T07:58:49;23.10;99.90
13462;DHT22;6803;45.264;5.468;2023-09-12T08:01:20;22.90;99.90
13462;DHT22;6803;45.264;5.468;2023-09-12T08:03:51;22.70;99.90
13462;DHT22;6803;45.264;5.468;2023-09-12T08:06:22;22.70;99.90
13462;DHT22;6803;45.264;5.468;2023-09-12T08:08:54;22.50;99.90
13462;DHT22;6803;45.264;5.468;2023-09-12T08:11:24;22.40;99.90
13462;DHT22;6803;45.264;5.468;2023-09-12T08:13:56;22.40;99.90
13462;DHT22;6803;45.264;5.468;2023-09-12T08:16:27;22.40;99.90
13462;DHT22;6803;45.264;5.468;2023-09-12T08:18:57;22.50;99.90
13462;DHT22;6803;45.264;5.468;2023-09-12T08:21:28;22.60;99.90
13462;DHT22;6803;45.264;5.468;2023-09-12T08:23:59;22.60;99.90
13462;DHT22;6803;45.264;5.468;2023-09-12T08:26:31;22.70;99.90
13462;DHT22;6803;45.264;5.468;2023-09-12T08:29:01;22.70;99.90
13462;DHT22;6803;45.264;5.468;2023-09-12T08:31:32;22.60;99.90
13462;DHT22;6803;45.264;5.468;2023-09-12T08:34:03;22.60;99.90
13462;DHT22;6803;45.264;5.468;2023-09-12T08:36:34;22.50;99.90
13462;DHT22;6803;45.264;5.468;2023-09-12T08:39:05;22.50;99.90
13462;DHT22;6803;45.264;5.468;2023-09-12T08:41:37;22.60;99.90
13462;DHT22;6803;45.264;5.468;2023-09-12T08:46:50;22.60;99.90
13462;DHT22;6803;45.264;5.468;2023-09-12T08:49:21;22.80;99.90
13462;DHT22;6803;45.264;5.468;2023-09-12T08:51:53;23.00;99.90
13462;DHT22;6803;45.264;5.468;2023-09-12T08:54:25;23.10;99.90
13462;DHT22;6803;45.264;5.468;2023-09-12T08:56:56;23.20;99.90
13462;DHT22;6803;45.264;5.468;2023-09-12T08:59:28;23.30;99.90
13462;DHT22;6803;45.264;5.468;2023-09-12T09:02:00;23.40;99.90
13462;DHT22;6803;45.264;5.468;2023-09-12T09:04:33;23.50;99.90
13462;DHT22;6803;45.264;5.468;2023-09-12T09:09:47;23.60;99.90
13462;DHT22;6803;45.264;5.468;2023-09-12T09:15:20;23.90;99.90
13462;DHT22;6803;45.264;5.468;2023-09-12T09:17:52;24.00;99.90
13462;DHT22;6803;45.264;5.468;2023-09-12T09:20:26;23.90;99.90
13462;DHT22;6803;45.264;5.468;2023-09-12T09:22:59;24.30;99.90
13462;DHT22;6803;45.264;5.468;2023-09-12T09:25:29;24.50;99.90
13462;DHT22;6803;45.264;5.468;2023-09-12T09:30:44;24.60;99.90
13462;DHT22;6803;45.264;5.468;2023-09-12T09:33:16;24.40;99.90
13462;DHT22;6803;45.264;5.468;2023-09-12T09:35:48;24.90;99.90
13462;DHT22;6803;45.264;5.468;2023-09-12T09:38:21;25.50;99.90
13462;DHT22;6803;45.264;5.468;2023-09-12T09:40:52;25.60;99.90
13462;DHT22;6803;45.264;5.468;2023-09-12T09:43:23;25.50;99.90
13462;DHT22;6803;45.264;5.468;2023-09-12T09:45:54;25.40;99.90
13462;DHT22;6803;45.264;5.468;2023-09-12T09:51:07;25.70;99.90
13462;DHT22;6803;45.264;5.468;2023-09-12T09:56:20;26.20;99.90
13462;DHT22;6803;45.264;5.468;2023-09-12T09:58:53;25.90;99.90
13462;DHT22;6803;45.264;5.468;2023-09-12T10:01:26;25.70;99.90
13462;DHT22;6803;45.264;5.468;2023-09-12T10:03:59;25.70;99.90
13462;DHT22;6803;45.264;5.468;2023-09-12T10:06:31;25.80;99.90
13462;DHT22;6803;45.264;5.468;2023-09-12T10:09:05;26.00;99.90
13462;DHT22;6803;45.264;5.468;2023-09-12T10:11:38;26.10;99.90
13462;DHT22;6803;45.264;5.468;2023-09-12T10:14:09;26.30;99.90
13462;DHT22;6803;45.264;5.468;2023-09-12T10:16:43;26.30;99.90
13462;DHT22;6803;45.264;5.468;2023-09-12T10:19:16;26.40;99.90
13462;DHT22;6803;45.264;5.468;2023-09-12T10:21:52;26.70;99.90
13462;DHT22;6803;45.264;5.468;2023-09-12T10:24:22;26.50;99.90
13462;DHT22;6803;45.264;5.468;2023-09-12T10:26:55;26.60;99.90
13462;DHT22;6803;45.264;5.468;2023-09-12T10:29:26;26.60;99.90
13462;DHT22;6803;45.264;5.468;2023-09-12T10:31:56;26.90;99.90
13462;DHT22;6803;45.264;5.468;2023-09-12T10:34:28;26.80;99.90
13462;DHT22;6803;45.264;5.468;2023-09-12T10:37:00;27.10;99.90
13462;DHT22;6803;45.264;5.468;2023-09-12T10:39:34;26.80;99.90
13462;DHT22;6803;45.264;5.468;2023-09-12T10:42:06;27.00;99.90
13462;DHT22;6803;45.264;5.468;2023-09-12T10:44:37;26.60;99.90
13462;DHT22;6803;45.264;5.468;2023-09-12T10:47:09;26.30;99.90
13462;DHT22;6803;45.264;5.468;2023-09-12T10:49:39;26.70;99.90
13462;DHT22;6803;45.264;5.468;2023-09-12T10:52:11;27.20;99.90
13462;DHT22;6803;45.264;5.468;2023-09-12T10:54:43;27.00;99.90
13462;DHT22;6803;45.264;5.468;2023-09-12T10:57:15;26.50;99.90
13462;DHT22;6803;45.264;5.468;2023-09-12T11:00:13;26.50;99.90
13462;DHT22;6803;45.264;5.468;2023-09-12T11:02:44;27.00;99.90
13462;DHT22;6803;45.264;5.468;2023-09-12T11:05:36;27.20;99.90
13462;DHT22;6803;45.264;5.468;2023-09-12T11:13:40;27.40;99.90
13462;DHT22;6803;45.264;5.468;2023-09-12T11:16:12;27.80;99.90
13462;DHT22;6803;45.264;5.468;2023-09-12T11:19:15;27.90;99.90
13462;DHT22;6803;45.264;5.468;2023-09-12T11:21:48;28.10;99.90
13462;DHT22;6803;45.264;5.468;2023-09-12T11:24:20;28.00;99.90
13462;DHT22;6803;45.264;5.468;2023-09-12T11:26:58;28.40;99.90
13462;DHT22;6803;45.264;5.468;2023-09-12T11:29:30;28.30;99.90
13462;DHT22;6803;45.264;5.468;2023-09-12T11:32:03;28.50;99.90
13462;DHT22;6803;45.264;5.468;2023-09-12T11:34:40;28.20;99.90
13462;DHT22;6803;45.264;5.468;2023-09-12T11:37:10;28.50;99.90
13462;DHT22;6803;45.264;5.468;2023-09-12T11:39:44;28.40;99.90
13462;DHT22;6803;45.264;5.468;2023-09-12T11:42:15;28.40;99.90
13462;DHT22;6803;45.264;5.468;2023-09-12T11:44:46;28.50;99.90
13462;DHT22;6803;45.264;5.468;2023-09-12T11:47:18;28.70;99.90
13462;DHT22;6803;45.264;5.468;2023-09-12T11:49:50;29.10;99.90
13462;DHT22;6803;45.264;5.468;2023-09-12T11:52:21;29.30;99.90
13462;DHT22;6803;45.264;5.468;2023-09-12T11:54:54;29.40;99.90
13462;DHT22;6803;45.264;5.468;2023-09-12T12:00:07;29.50;99.90
13462;DHT22;6803;45.264;5.468;2023-09-12T12:02:39;29.20;99.90
13462;DHT22;6803;45.264;5.468;2023-09-12T12:05:10;29.50;99.90
13462;DHT22;6803;45.264;5.468;2023-09-12T12:07:41;30.00;99.90
13462;DHT22;6803;45.264;5.468;2023-09-12T12:10:13;30.40;99.90
13462;DHT22;6803;45.264;5.468;2023-09-12T12:15:27;30.90;99.90
13462;DHT22;6803;45.264;5.468;2023-09-12T12:17:58;30.90;99.90
13462;DHT22;6803;45.264;5.468;2023-09-12T12:20:29;30.40;99.90
13462;DHT22;6803;45.264;5.468;2023-09-12T12:23:00;29.90;99.90
13462;DHT22;6803;45.264;5.468;2023-09-12T12:25:33;29.20;99.90
13462;DHT22;6803;45.264;5.468;2023-09-12T12:28:05;29.30;99.90
13462;DHT22;6803;45.264;5.468;2023-09-12T12:30:36;29.30;99.90
13462;DHT22;6803;45.264;5.468;2023-09-12T12:33:09;29.10;99.90
13462;DHT22;6803;45.264;5.468;2023-09-12T12:35:41;29.00;99.90
13462;DHT22;6803;45.264;5.468;2023-09-12T12:38:14;29.00;99.90
13462;DHT22;6803;45.264;5.468;2023-09-12T12:40:46;28.90;99.90
13462;DHT22;6803;45.264;5.468;2023-09-12T12:43:18;28.90;99.90
13462;DHT22;6803;45.264;5.468;2023-09-12T12:45:56;28.70;99.90
13462;DHT22;6803;45.264;5.468;2023-09-12T12:48:33;28.70;99.90
13462;DHT22;6803;45.264;5.468;2023-09-12T12:51:16;28.70;99.90
13462;DHT22;6803;45.264;5.468;2023-09-12T12:53:48;28.40;99.90
13462;DHT22;6803;45.264;5.468;2023-09-12T12:56:23;28.60;99.90
13462;DHT22;6803;45.264;5.468;2023-09-12T12:58:57;28.80;99.90
13462;DHT22;6803;45.264;5.468;2023-09-12T13:01:30;28.70;99.90
13462;DHT22;6803;45.264;5.468;2023-09-12T13:04:01;28.60;99.90
13462;DHT22;6803;45.264;5.468;2023-09-12T13:06:31;28.80;99.90
13462;DHT22;6803;45.264;5.468;2023-09-12T13:09:04;28.80;99.90
13462;DHT22;6803;45.264;5.468;2023-09-12T13:11:36;28.80;99.90
13462;DHT22;6803;45.264;5.468;2023-09-12T13:14:08;28.90;99.90
13462;DHT22;6803;45.264;5.468;2023-09-12T13:16:41;28.90;99.90
13462;DHT22;6803;45.264;5.468;2023-09-12T13:19:12;28.90;99.90
13462;DHT22;6803;45.264;5.468;2023-09-12T13:21:43;28.80;99.90
13462;DHT22;6803;45.264;5.468;2023-09-12T13:26:54;28.50;99.90
13462;DHT22;6803;45.264;5.468;2023-09-12T13:29:25;28.40;99.90
13462;DHT22;6803;45.264;5.468;2023-09-12T13:31:55;28.40;99.90
13462;DHT22;6803;45.264;5.468;2023-09-12T13:34:26;28.30;99.90
13462;DHT22;6803;45.264;5.468;2023-09-12T13:36:56;28.00;99.90
13462;DHT22;6803;45.264;5.468;2023-09-12T13:39:28;28.10;99.90
13462;DHT22;6803;45.264;5.468;2023-09-12T13:41:59;28.00;99.90
13462;DHT22;6803;45.264;5.468;2023-09-12T13:44:31;28.00;99.90
13462;DHT22;6803;45.264;5.468;2023-09-12T13:47:02;28.10;99.90
13462;DHT22;6803;45.264;5.468;2023-09-12T13:49:33;28.20;99.90
13462;DHT22;6803;45.264;5.468;2023-09-12T13:52:04;28.30;99.90
13462;DHT22;6803;45.264;5.468;2023-09-12T13:54:36;28.30;99.90
13462;DHT22;6803;45.264;5.468;2023-09-12T13:57:06;28.10;99.90
13462;DHT22;6803;45.264;5.468;2023-09-12T13:59:37;27.90;99.90
13462;DHT22;6803;45.264;5.468;2023-09-12T14:04:50;27.60;99.90
13462;DHT22;6803;45.264;5.468;2023-09-12T14:10:04;27.00;99.90
13462;DHT22;6803;45.264;5.468;2023-09-12T14:12:35;26.90;99.90
13462;DHT22;6803;45.264;5.468;2023-09-12T14:15:08;27.30;99.90
13462;DHT22;6803;45.264;5.468;2023-09-12T14:20:21;27.60;99.90
13462;DHT22;6803;45.264;5.468;2023-09-12T14:25:33;27.50;99.90
13462;DHT22;6803;45.264;5.468;2023-09-12T14:28:06;27.60;99.90
13462;DHT22;6803;45.264;5.468;2023-09-12T14:30:36;27.50;99.90
13462;DHT22;6803;45.264;5.468;2023-09-12T14:33:09;27.50;99.90
13462;DHT22;6803;45.264;5.468;2023-09-12T14:35:40;27.00;99.90
13462;DHT22;6803;45.264;5.468;2023-09-12T14:40:53;26.80;99.90
13462;DHT22;6803;45.264;5.468;2023-09-12T14:43:24;26.60;99.90
13462;DHT22;6803;45.264;5.468;2023-09-12T14:45:56;26.50;99.90
13462;DHT22;6803;45.264;5.468;2023-09-12T14:48:26;26.40;99.90
13462;DHT22;6803;45.264;5.468;2023-09-12T14:50:57;26.40;99.90
13462;DHT22;6803;45.264;5.468;2023-09-12T14:53:28;26.40;99.90
13462;DHT22;6803;45.264;5.468;2023-09-12T14:55:58;26.40;99.90
13462;DHT22;6803;45.264;5.468;2023-09-12T14:58:29;26.30;99.90
13462;DHT22;6803;45.264;5.468;2023-09-12T15:00:59;26.20;99.90
13462;DHT22;6803;45.264;5.468;2023-09-12T15:03:31;26.20;99.90
13462;DHT22;6803;45.264;5.468;2023-09-12T15:06:06;26.20;99.90
13462;DHT22;6803;45.264;5.468;2023-09-12T15:08:36;26.10;99.90
13462;DHT22;6803;45.264;5.468;2023-09-12T15:11:07;26.10;99.90
13462;DHT22;6803;45.264;5.468;2023-09-12T15:13:37;26.10;99.90
13462;DHT22;6803;45.264;5.468;2023-09-12T15:16:09;26.10;99.90
13462;DHT22;6803;45.264;5.468;2023-09-12T15:18:40;26.10;99.90
13462;DHT22;6803;45.264;5.468;2023-09-12T15:21:11;26.00;99.90
13462;DHT22;6803;45.264;5.468;2023-09-12T15:23:41;25.90;99.90
13462;DHT22;6803;45.264;5.468;2023-09-12T15:26:12;26.00;99.90
13462;DHT22;6803;45.264;5.468;2023-09-12T15:28:44;26.00;99.90
13462;DHT22;6803;45.264;5.468;2023-09-12T15:31:15;26.00;99.90
13462;DHT22;6803;45.264;5.468;2023-09-12T15:33:46;26.00;99.90
13462;DHT22;6803;45.264;5.468;2023-09-12T15:36:17;26.00;99.90
13462;DHT22;6803;45.264;5.468;2023-09-12T15:38:49;26.00;99.90
13462;DHT22;6803;45.264;5.468;2023-09-12T15:41:21;26.00;99.90
13462;DHT22;6803;45.264;5.468;2023-09-12T15:43:51;26.00;99.90
13462;DHT22;6803;45.264;5.468;2023-09-12T15:46:25;25.90;99.90
13462;DHT22;6803;45.264;5.468;2023-09-12T15:51:21;26.00;99.90
13462;DHT22;6803;45.264;5.468;2023-09-12T15:53:52;25.90;99.90
13462;DHT22;6803;45.264;5.468;2023-09-12T15:58:56;25.80;99.90
13462;DHT22;6803;45.264;5.468;2023-09-12T16:01:27;25.80;99.90
13462;DHT22;6803;45.264;5.468;2023-09-12T16:03:58;25.70;99.90
13462;DHT22;6803;45.264;5.468;2023-09-12T16:06:30;25.60;99.90
13462;DHT22;6803;45.264;5.468;2023-09-12T16:09:01;25.60;99.90
13462;DHT22;6803;45.264;5.468;2023-09-12T16:11:32;25.60;99.90
13462;DHT22;6803;45.264;5.468;2023-09-12T16:20:08;25.70;99.90
13462;DHT22;6803;45.264;5.468;2023-09-12T16:22:41;25.60;99.90
13462;DHT22;6803;45.264;5.468;2023-09-12T16:25:12;25.50;99.90
13462;DHT22;6803;45.264;5.468;2023-09-12T16:27:43;25.40;99.90
13462;DHT22;6803;45.264;5.468;2023-09-12T16:30:14;25.50;99.90
13462;DHT22;6803;45.264;5.468;2023-09-12T16:32:45;25.40;99.90
13462;DHT22;6803;45.264;5.468;2023-09-12T16:35:17;25.30;99.90
13462;DHT22;6803;45.264;5.468;2023-09-12T16:37:48;25.30;99.90
13462;DHT22;6803;45.264;5.468;2023-09-12T16:40:19;25.20;99.90
13462;DHT22;6803;45.264;5.468;2023-09-12T16:42:50;25.00;99.90
13462;DHT22;6803;45.264;5.468;2023-09-12T16:45:20;24.90;99.90
13462;DHT22;6803;45.264;5.468;2023-09-12T16:47:51;24.80;99.90
13462;DHT22;6803;45.264;5.468;2023-09-12T16:50:24;24.60;99.90
13462;DHT22;6803;45.264;5.468;2023-09-12T16:52:55;24.50;99.90
13462;DHT22;6803;45.264;5.468;2023-09-12T16:55:26;24.40;99.90
13462;DHT22;6803;45.264;5.468;2023-09-12T16:57:56;24.30;99.90
13462;DHT22;6803;45.264;5.468;2023-09-12T17:00:28;24.30;99.90
13462;DHT22;6803;45.264;5.468;2023-09-12T17:03:00;24.30;99.90
13462;DHT22;6803;45.264;5.468;2023-09-12T17:05:31;24.20;99.90
13462;DHT22;6803;45.264;5.468;2023-09-12T17:08:02;24.30;99.90
13462;DHT22;6803;45.264;5.468;2023-09-12T17:10:33;24.20;99.90
13462;DHT22;6803;45.264;5.468;2023-09-12T17:13:05;24.20;99.90
13462;DHT22;6803;45.264;5.468;2023-09-12T17:15:36;24.00;99.90
13462;DHT22;6803;45.264;5.468;2023-09-12T17:18:08;23.90;99.90
13462;DHT22;6803;45.264;5.468;2023-09-12T17:20:40;23.80;99.90
13462;DHT22;6803;45.264;5.468;2023-09-12T17:23:11;23.70;99.90
13462;DHT22;6803;45.264;5.468;2023-09-12T17:25:42;23.70;99.90
13462;DHT22;6803;45.264;5.468;2023-09-12T17:28:13;23.50;99.90
13462;DHT22;6803;45.264;5.468;2023-09-12T17:30:44;23.50;99.90
13462;DHT22;6803;45.264;5.468;2023-09-12T17:33:15;23.30;99.90
13462;DHT22;6803;45.264;5.468;2023-09-12T17:35:46;23.20;99.90
13462;DHT22;6803;45.264;5.468;2023-09-12T17:38:17;23.20;99.90
13462;DHT22;6803;45.264;5.468;2023-09-12T17:40:48;23.10;99.90
13462;DHT22;6803;45.264;5.468;2023-09-12T17:43:19;23.10;99.90